createdAt,value
2022-09-05T00:01:48.753Z,10.75
2022-09-05T00:04:27.846Z,16.02
2022-09-05T00:07:03.826Z,14.05
2022-09-05T00:10:02.127Z,17.23
2022-09-05T00:12:35.444Z,17.05
2022-09-05T00:15:31.153Z,15.85
2022-09-05T00:23:00.510Z,19.30
2022-09-05T00:24:37.160Z,17.45
2022-09-05T00:25:06.872Z,18.20
2022-09-05T00:27:36.158Z,17.23
2022-09-05T00:31:07.465Z,18.83
2022-09-05T00:33:17.560Z,20.00
2022-09-05T00:36:03.114Z,19.27
2022-09-05T00:38:36.620Z,17.67
2022-09-05T00:41:09.331Z,16.08
2022-09-05T00:43:42.058Z,18.38
2022-09-05T00:46:15.663Z,19.02
2022-09-05T00:48:52.237Z,16.85
2022-09-05T00:51:35.494Z,18.52
2022-09-05T00:54:50.460Z,16.77
2022-09-05T00:57:33.179Z,17.17
2022-09-05T01:00:19.868Z,18.83
2022-09-05T01:03:21.828Z,17.58
2022-09-05T01:06:05.176Z,19.02
2022-09-05T01:08:53.460Z,18.90
2022-09-05T01:11:39.406Z,20.63
2022-09-05T01:14:21.766Z,20.77
2022-09-05T01:17:09.921Z,19.20
2022-09-05T01:19:51.835Z,18.85
2022-09-05T01:22:36.154Z,21.65
2022-09-05T01:25:20.291Z,21.00
2022-09-05T01:29:14.177Z,22.38
2022-09-05T01:30:51.760Z,21.00
2022-09-05T01:33:32.135Z,17.85
2022-09-05T01:36:33.222Z,22.02
2022-09-05T01:40:12.171Z,18.33
2022-09-05T01:42:00.382Z,19.92
2022-09-05T01:44:42.797Z,20.67
2022-09-05T01:47:40.229Z,21.60
2022-09-05T01:50:24.905Z,20.50
2022-09-05T01:53:25.386Z,20.77
2022-09-05T01:56:26.114Z,19.70
2022-09-05T01:59:07.388Z,21.25
2022-09-05T02:01:49.800Z,18.85
2022-09-05T02:04:48.598Z,21.63
2022-09-05T02:07:31.829Z,19.20
2022-09-05T02:10:31.756Z,20.48
2022-09-05T02:13:12.938Z,19.70
2022-09-05T02:15:59.816Z,20.40
2022-09-05T02:18:44.189Z,19.75
2022-09-05T02:21:23.236Z,21.40
2022-09-05T02:24:02.625Z,19.30
2022-09-05T02:26:35.656Z,19.15
2022-09-05T02:29:12.388Z,20.70
2022-09-05T02:32:02.624Z,18.98
2022-09-05T02:34:41.299Z,21.50
2022-09-05T02:37:15.771Z,19.30
2022-09-05T02:45:00.100Z,17.70
2022-09-05T02:45:14.649Z,20.95
2022-09-05T02:46:00.019Z,20.17
2022-09-05T02:48:39.078Z,19.80
2022-09-05T02:57:27.592Z,20.58
2022-09-05T02:57:34.880Z,17.85
2022-09-05T02:57:45.961Z,16.40
2022-09-05T03:00:09.069Z,19.13
2022-09-05T03:05:19.221Z,18.15
2022-09-05T03:08:20.467Z,20.45
2022-09-05T03:11:20.359Z,20.30
2022-09-05T03:14:26.442Z,20.15
2022-09-05T03:17:24.860Z,20.73
2022-09-05T03:20:29.565Z,20.33
2022-09-05T03:23:23.231Z,24.30
2022-09-05T03:26:33.504Z,22.63
2022-09-05T03:29:39.228Z,21.85
2022-09-05T03:32:29.912Z,21.67
2022-09-05T03:35:35.713Z,22.05
2022-09-05T03:38:30.307Z,19.92
2022-09-05T03:41:19.040Z,22.05
2022-09-05T03:44:05.204Z,22.27
2022-09-05T03:46:59.405Z,20.10
2022-09-05T03:54:33.767Z,20.85
2022-09-05T03:57:16.513Z,22.08
2022-09-05T03:57:17.190Z,22.35
2022-09-05T03:59:17.175Z,21.58
2022-09-05T04:02:43.679Z,22.60
2022-09-05T04:08:14.028Z,19.90
2022-09-05T04:08:23.638Z,18.45
2022-09-05T04:10:36.550Z,18.35
2022-09-05T04:13:09.443Z,21.67
2022-09-05T04:15:43.360Z,22.10
2022-09-05T04:18:25.686Z,21.23
2022-09-05T04:21:06.019Z,22.15
2022-09-05T04:23:42.380Z,22.48
2022-09-05T04:26:23.085Z,22.92
2022-09-05T04:29:03.295Z,22.48
2022-09-05T04:31:44.306Z,21.98
2022-09-05T04:34:32.063Z,23.45
2022-09-05T04:37:03.052Z,24.67
2022-09-05T04:39:33.116Z,25.08
2022-09-05T04:42:15.455Z,24.55
2022-09-05T04:44:49.088Z,22.70
2022-09-05T04:47:23.353Z,24.85
2022-09-05T04:49:58.167Z,22.65
2022-09-05T04:52:49.184Z,22.30
2022-09-05T04:55:20.243Z,23.48
2022-09-05T04:57:54.503Z,23.23
2022-09-05T05:05:58.461Z,24.15
2022-09-05T05:06:16.671Z,22.08
2022-09-05T05:06:43.813Z,21.63
2022-09-05T05:09:03.592Z,22.55
2022-09-05T05:17:50.874Z,22.85
2022-09-05T05:18:08.470Z,22.15
2022-09-05T05:18:13.564Z,19.63
2022-09-05T05:20:41.238Z,21.10
2022-09-05T05:23:15.297Z,22.15
2022-09-05T05:25:49.312Z,19.58
2022-09-05T05:28:26.424Z,22.60
2022-09-05T05:31:01.177Z,21.48
2022-09-05T05:33:34.649Z,20.88
2022-09-05T05:36:10.079Z,21.73
2022-09-05T05:38:46.962Z,19.67
2022-09-05T05:41:21.507Z,21.02
2022-09-05T05:43:51.137Z,19.83
2022-09-05T05:46:32.145Z,20.17
2022-09-05T05:49:24.435Z,23.10
2022-09-05T05:52:13.732Z,22.88
2022-09-05T05:54:50.469Z,19.67
2022-09-05T05:57:48.660Z,21.33
2022-09-05T06:00:27.317Z,22.20
2022-09-05T06:06:31.835Z,20.45
2022-09-05T06:14:48.344Z,22.92
2022-09-05T06:15:04.035Z,20.75
2022-09-05T06:16:32.732Z,21.50
2022-09-05T06:19:49.768Z,21.48
2022-09-05T06:22:54.927Z,20.95
2022-09-05T06:25:57.506Z,22.25
2022-09-05T06:28:42.876Z,21.15
2022-09-05T06:31:30.550Z,19.98
2022-09-05T06:34:33.281Z,21.15
2022-09-05T06:37:09.700Z,18.20
2022-09-05T06:39:58.466Z,19.70
2022-09-05T06:42:42.592Z,19.58
2022-09-05T06:45:27.473Z,20.63
2022-09-05T06:48:06.134Z,20.10
2022-09-05T06:51:08.090Z,20.67
2022-09-05T06:53:53.240Z,18.75
2022-09-05T06:56:40.230Z,15.45
2022-09-05T06:59:41.684Z,16.30
2022-09-05T07:02:28.618Z,15.73
2022-09-05T07:05:38.829Z,15.38
2022-09-05T07:08:36.407Z,17.45
2022-09-05T07:11:17.361Z,17.13
2022-09-05T07:14:00.048Z,16.90
2022-09-05T07:16:41.756Z,17.15
2022-09-05T07:19:25.452Z,20.73
2022-09-05T07:22:06.334Z,16.75
2022-09-05T07:24:55.623Z,16.85
2022-09-05T07:27:49.825Z,16.83
2022-09-05T07:30:24.892Z,16.08
2022-09-05T07:32:54.906Z,17.40
2022-09-05T07:35:29.296Z,15.68
2022-09-05T07:38:06.736Z,15.43
2022-09-05T07:40:39.409Z,15.15
2022-09-05T07:43:10.853Z,16.45
2022-09-05T07:45:52.261Z,15.32
2022-09-05T07:48:34.314Z,15.57
2022-09-05T07:56:51.198Z,15.23
2022-09-05T07:57:09.785Z,14.60
2022-09-05T07:57:31.232Z,13.43
2022-09-05T07:59:46.977Z,13.93
2022-09-05T08:02:15.199Z,16.23
2022-09-05T08:04:43.326Z,13.35
2022-09-05T08:07:49.684Z,15.48
2022-09-05T08:10:10.694Z,14.18
2022-09-05T08:13:22.780Z,14.45
2022-09-05T08:16:02.938Z,14.13
2022-09-05T08:18:28.468Z,14.60
2022-09-05T08:21:00.445Z,14.15
2022-09-05T08:23:49.118Z,12.07
2022-09-05T08:26:26.168Z,13.63
2022-09-05T08:29:02.827Z,14.90
2022-09-05T08:31:41.789Z,16.10
2022-09-05T08:34:15.654Z,14.13
2022-09-05T08:36:47.068Z,14.35
2022-09-05T08:39:20.734Z,15.20
2022-09-05T08:42:06.267Z,14.80
2022-09-05T08:46:42.115Z,14.68
2022-09-05T08:47:43.358Z,15.93
2022-09-05T08:50:31.111Z,15.82
2022-09-05T08:53:26.878Z,15.63
2022-09-05T08:56:02.643Z,16.75
2022-09-05T08:59:27.244Z,17.58
2022-09-05T09:02:42.908Z,17.55
2022-09-05T09:05:02.117Z,17.23
2022-09-05T09:07:51.140Z,17.27
2022-09-05T09:10:44.470Z,15.88
2022-09-05T09:13:32.211Z,16.85
2022-09-05T09:16:06.505Z,15.30
2022-09-05T09:18:46.737Z,17.35
2022-09-05T09:21:26.021Z,16.05
2022-09-05T09:24:06.288Z,16.55
2022-09-05T09:26:40.384Z,16.90
2022-09-05T09:29:12.851Z,17.13
2022-09-05T09:32:00.729Z,14.88
2022-09-05T09:34:53.305Z,15.50
2022-09-05T09:38:04.776Z,14.70
2022-09-05T09:41:15.900Z,15.20
2022-09-05T09:44:07.891Z,16.88
2022-09-05T09:46:41.925Z,15.45
2022-09-05T09:49:27.622Z,16.00
2022-09-05T09:52:31.581Z,15.75
2022-09-05T09:55:39.067Z,18.08
2022-09-05T09:58:31.748Z,19.33
2022-09-05T10:01:35.866Z,17.42
2022-09-05T10:10:50.595Z,17.20
2022-09-05T10:11:09.108Z,17.05
2022-09-05T10:11:36.135Z,17.20
2022-09-05T10:14:30.717Z,15.52
2022-09-05T10:17:30.311Z,15.80
2022-09-05T10:20:29.656Z,18.67
2022-09-05T10:23:37.358Z,16.08
2022-09-05T10:26:43.205Z,17.63
2022-09-05T10:29:35.093Z,17.50
2022-09-05T10:35:09.967Z,16.55
2022-09-05T10:35:16.921Z,16.73
2022-09-05T10:37:55.318Z,17.08
2022-09-05T10:40:25.625Z,18.48
2022-09-05T10:43:00.980Z,17.67
2022-09-05T10:45:39.756Z,16.73
2022-09-05T10:48:14.040Z,16.57
2022-09-05T10:50:45.810Z,14.48
2022-09-05T10:53:39.938Z,14.98
2022-09-05T10:56:15.540Z,15.20
2022-09-05T11:00:32.601Z,14.68
2022-09-05T11:02:29.325Z,15.25
2022-09-05T11:04:52.539Z,15.27
2022-09-05T11:07:29.706Z,14.95
2022-09-05T11:10:11.594Z,15.00
2022-09-05T11:13:01.336Z,15.25
2022-09-05T11:15:44.100Z,14.80
2022-09-05T11:18:55.974Z,15.80
2022-09-05T11:21:31.099Z,13.00
2022-09-05T11:24:05.164Z,13.30
2022-09-05T11:26:42.276Z,11.77
2022-09-05T11:29:13.346Z,11.23
2022-09-05T11:33:01.774Z,11.00
2022-09-05T11:40:05.889Z,9.52
2022-09-05T11:40:07.645Z,10.68
2022-09-05T11:41:53.183Z,9.07
2022-09-05T11:44:43.963Z,8.93
2022-09-05T11:50:46.547Z,9.32
2022-09-05T11:53:44.101Z,9.20
2022-09-05T11:56:45.620Z,9.15
2022-09-05T12:00:10.762Z,9.05
2022-09-05T12:06:22.336Z,8.07
2022-09-05T12:08:55.800Z,8.07
2022-09-05T12:11:43.354Z,8.82
2022-09-05T12:14:34.276Z,8.50
2022-09-05T12:17:10.172Z,9.05
2022-09-05T12:19:55.321Z,8.27
2022-09-05T12:27:36.693Z,8.13
2022-09-05T12:29:27.514Z,8.15
2022-09-05T12:33:33.953Z,8.00
2022-09-05T12:36:11.387Z,7.47
2022-09-05T12:40:53.763Z,7.88
2022-09-05T12:41:35.459Z,8.30
2022-09-05T12:41:37.435Z,7.28
2022-09-05T12:44:36.830Z,6.63
2022-09-05T12:48:38.517Z,6.38
2022-09-05T12:51:11.114Z,6.90
2022-09-05T12:53:45.981Z,6.40
2022-09-05T12:57:53.017Z,6.18
2022-09-05T13:03:01.344Z,5.95
2022-09-05T13:03:13.136Z,5.45
2022-09-05T13:05:04.962Z,5.68
2022-09-05T13:07:41.066Z,4.78
2022-09-05T13:11:24.134Z,5.78
2022-09-05T13:14:49.645Z,4.97
2022-09-05T13:16:03.332Z,5.22
2022-09-05T13:18:39.203Z,5.18
2022-09-05T13:21:12.041Z,4.70
2022-09-05T13:23:48.768Z,4.88
2022-09-05T13:26:25.409Z,4.93
2022-09-05T13:29:07.045Z,4.63
2022-09-05T13:37:55.248Z,4.65
2022-09-05T13:38:14.305Z,4.60
2022-09-05T13:41:00.184Z,4.18
2022-09-05T13:43:36.425Z,3.55
2022-09-05T13:46:12.517Z,3.97
2022-09-05T13:51:43.686Z,3.72
2022-09-05T13:54:39.240Z,3.63
2022-09-05T13:57:33.275Z,3.78
2022-09-05T14:00:39.131Z,3.80
2022-09-05T14:03:40.344Z,3.55
2022-09-05T14:06:46.536Z,3.80
2022-09-05T14:09:35.771Z,3.88
2022-09-05T14:12:19.500Z,3.60
2022-09-05T14:15:11.446Z,3.88
2022-09-05T14:18:21.637Z,4.15
2022-09-05T14:21:14.741Z,4.55
2022-09-05T14:23:53.322Z,4.63
2022-09-05T14:26:28.027Z,4.40
2022-09-05T14:29:05.970Z,4.55
2022-09-05T14:37:19.197Z,4.47
2022-09-05T14:37:45.204Z,4.65
2022-09-05T14:38:11.681Z,4.72
2022-09-05T14:41:15.291Z,5.07
2022-09-05T14:44:21.208Z,4.10
2022-09-05T14:47:02.659Z,4.50
2022-09-05T14:49:49.554Z,4.45
2022-09-05T14:52:24.505Z,3.90
2022-09-05T15:02:45.054Z,3.92
2022-09-05T15:02:53.202Z,3.97
2022-09-05T15:06:37.226Z,3.85
2022-09-05T15:12:14.490Z,4.40
2022-09-05T15:12:33.113Z,4.03
2022-09-05T15:15:20.143Z,3.70
2022-09-05T15:17:52.642Z,3.90
2022-09-05T15:20:36.825Z,4.20
2022-09-05T15:23:11.150Z,4.13
2022-09-05T15:25:47.618Z,4.55
2022-09-05T15:28:22.333Z,4.53
2022-09-05T15:30:58.669Z,4.55
2022-09-05T15:33:29.317Z,4.60
2022-09-05T15:35:58.679Z,4.88
2022-09-05T15:38:30.029Z,4.38
2022-09-05T15:41:09.902Z,5.78
2022-09-05T15:43:58.244Z,5.40
2022-09-05T15:46:35.665Z,5.30
2022-09-05T15:49:05.356Z,5.75
2022-09-05T15:51:48.367Z,5.10
2022-09-05T15:54:38.680Z,5.53
2022-09-05T15:57:17.659Z,5.32
2022-09-05T15:59:52.697Z,5.38
2022-09-05T16:02:24.335Z,5.78
2022-09-05T16:10:30.983Z,5.38
2022-09-05T16:10:44.810Z,4.88
2022-09-05T16:11:06.070Z,5.50
2022-09-05T16:13:52.810Z,5.40
2022-09-05T16:23:11.856Z,6.18
2022-09-05T16:23:14.769Z,5.40
2022-09-05T16:23:26.991Z,5.05
2022-09-05T16:25:09.486Z,5.32
2022-09-05T16:27:51.561Z,5.50
2022-09-05T16:30:24.973Z,5.75
2022-09-05T16:33:00.167Z,5.15
2022-09-05T16:35:31.248Z,5.05
2022-09-05T16:38:09.812Z,5.00
2022-09-05T16:40:40.953Z,5.25
2022-09-05T16:43:13.099Z,4.93
2022-09-05T16:45:48.966Z,5.40
2022-09-05T16:48:31.331Z,5.05
2022-09-05T16:51:13.450Z,5.18
2022-09-05T16:53:57.989Z,5.72
2022-09-05T16:56:34.257Z,4.32
2022-09-05T16:59:04.437Z,4.72
2022-09-05T17:01:54.732Z,5.15
2022-09-05T17:05:03.140Z,4.78
2022-09-05T17:07:53.490Z,4.97
2022-09-05T17:10:25.625Z,5.50
2022-09-05T17:12:54.815Z,4.93
2022-09-05T17:15:27.590Z,4.65
2022-09-05T17:18:21.696Z,4.85
2022-09-05T17:20:55.465Z,5.00
2022-09-05T17:27:19.968Z,4.82
2022-09-05T17:29:48.958Z,5.03
2022-09-05T17:32:47.140Z,5.35
2022-09-05T17:35:42.196Z,5.22
2022-09-05T17:38:30.853Z,6.97
2022-09-05T17:41:22.946Z,7.82
2022-09-05T17:43:58.880Z,7.85
2022-09-05T17:46:29.055Z,5.93
2022-09-05T17:49:19.564Z,9.77
2022-09-05T17:52:27.188Z,12.63
2022-09-05T17:54:57.484Z,17.52
2022-09-05T17:57:44.232Z,19.48
2022-09-05T18:01:00.956Z,27.25
2022-09-05T18:04:16.291Z,24.70
2022-09-05T18:06:59.579Z,22.92
2022-09-05T18:10:12.972Z,14.02
2022-09-05T18:13:13.802Z,10.48
2022-09-05T18:16:03.906Z,8.55
2022-09-05T18:19:28.609Z,7.80
2022-09-05T18:21:25.661Z,7.53
2022-09-05T18:24:04.468Z,6.72
2022-09-05T18:26:41.311Z,6.38
2022-09-05T18:29:24.716Z,6.85
2022-09-05T18:32:13.060Z,6.63
2022-09-05T18:34:46.165Z,6.38
2022-09-05T18:37:47.973Z,6.30
2022-09-05T18:40:35.862Z,6.38
2022-09-05T18:43:10.439Z,7.00
2022-09-05T18:45:52.130Z,6.45
2022-09-05T18:48:28.272Z,6.72
2022-09-05T18:51:15.721Z,7.05
2022-09-05T18:53:47.975Z,7.05
2022-09-05T18:56:39.426Z,7.18
2022-09-05T18:59:24.340Z,6.57
2022-09-05T19:01:58.721Z,7.22
2022-09-05T19:04:41.464Z,6.57
2022-09-05T19:07:13.496Z,7.43
2022-09-05T19:10:03.649Z,7.32
2022-09-05T19:12:53.888Z,7.50
2022-09-05T19:15:25.010Z,7.43
2022-09-05T19:18:26.414Z,7.70
2022-09-05T19:21:12.061Z,7.82
2022-09-05T19:23:48.317Z,7.53
2022-09-05T19:26:16.506Z,7.88
2022-09-05T19:35:22.992Z,7.30
2022-09-05T19:37:12.708Z,7.88
2022-09-05T19:37:15.104Z,7.38
2022-09-05T19:37:38.294Z,7.65
2022-09-05T19:47:25.217Z,8.07
2022-09-05T19:47:41.042Z,8.50
2022-09-05T19:47:52.050Z,8.80
2022-09-05T19:48:39.349Z,8.07
2022-09-05T19:51:17.057Z,8.65
2022-09-05T19:53:56.590Z,8.57
2022-09-05T19:56:36.617Z,8.05
2022-09-05T19:59:16.749Z,8.07
2022-09-05T20:01:46.640Z,8.52
2022-09-05T20:04:18.711Z,7.93
2022-09-05T20:06:50.140Z,7.70
2022-09-05T20:09:19.717Z,8.07
2022-09-05T20:11:49.892Z,8.63
2022-09-05T20:14:20.901Z,9.88
2022-09-05T20:16:50.338Z,10.93
2022-09-05T20:19:28.304Z,11.02
2022-09-05T20:22:11.490Z,9.95
2022-09-05T20:24:49.225Z,10.60
2022-09-05T20:27:17.741Z,11.97
2022-09-05T20:29:55.572Z,12.45
2022-09-05T20:32:38.508Z,13.00
2022-09-05T20:36:32.894Z,12.80
2022-09-05T20:43:15.640Z,9.85
2022-09-05T20:43:32.822Z,10.48
2022-09-05T20:43:57.817Z,9.23
2022-09-05T20:50:44.322Z,10.57
2022-09-05T20:54:09.665Z,9.10
2022-09-05T20:54:13.199Z,9.95
2022-09-05T20:55:37.841Z,9.40
2022-09-05T20:57:51.901Z,9.18
2022-09-05T21:00:23.019Z,9.57
2022-09-05T21:02:54.631Z,10.05
2022-09-05T21:05:28.621Z,10.80
2022-09-05T21:08:16.629Z,10.10
2022-09-05T21:10:54.966Z,10.65
2022-09-05T21:15:55.616Z,11.18
2022-09-05T21:21:27.934Z,16.95
2022-09-05T21:24:17.587Z,13.77
2022-09-05T21:26:49.562Z,11.95
2022-09-05T21:29:27.250Z,13.15
2022-09-05T21:32:00.409Z,11.63
2022-09-05T21:34:32.519Z,10.77
2022-09-05T21:37:07.245Z,9.45
2022-09-05T21:39:40.079Z,10.00
2022-09-05T21:42:37.227Z,9.60
2022-09-05T21:47:43.657Z,10.07
2022-09-05T21:47:53.107Z,9.02
2022-09-05T21:50:30.784Z,10.73
2022-09-05T21:54:28.535Z,9.25
2022-09-05T21:59:21.157Z,11.93
2022-09-05T22:01:52.067Z,10.38
2022-09-05T22:04:18.974Z,16.30
2022-09-05T22:06:48.152Z,16.20
2022-09-05T22:09:17.059Z,12.38
2022-09-05T22:11:50.247Z,11.57
2022-09-05T22:14:21.177Z,11.10
2022-09-05T22:16:51.453Z,14.95
2022-09-05T22:19:26.167Z,14.95
2022-09-05T22:22:15.683Z,15.50
2022-09-05T22:24:47.823Z,16.15
2022-09-05T22:27:19.918Z,13.73
2022-09-05T22:29:51.100Z,14.85
2022-09-05T22:32:34.553Z,15.00
2022-09-05T22:35:26.815Z,15.23
2022-09-05T22:37:59.225Z,17.23
2022-09-05T22:40:28.267Z,25.23
2022-09-05T22:42:57.701Z,26.48
2022-09-05T22:45:27.389Z,26.70
2022-09-05T22:47:55.609Z,31.25
2022-09-05T22:50:23.967Z,26.20
2022-09-05T22:52:52.144Z,26.55
2022-09-05T22:55:20.418Z,22.88
2022-09-05T22:57:48.561Z,18.98
2022-09-05T23:00:16.716Z,15.20
2022-09-05T23:02:52.243Z,12.68
2022-09-05T23:05:20.845Z,11.05
2022-09-05T23:07:48.949Z,11.75
2022-09-05T23:10:18.914Z,10.98
2022-09-05T23:12:47.096Z,13.90
2022-09-05T23:15:15.766Z,14.63
2022-09-05T23:17:43.865Z,15.77
2022-09-05T23:20:13.383Z,20.40
2022-09-05T23:27:39.593Z,22.10
2022-09-05T23:30:09.506Z,18.45
2022-09-05T23:32:37.825Z,21.25
2022-09-05T23:35:06.525Z,17.40
2022-09-05T23:37:35.968Z,13.35
2022-09-05T23:40:04.836Z,16.27
2022-09-05T23:42:32.905Z,14.00
2022-09-05T23:45:00.959Z,12.90
2022-09-05T23:47:29.848Z,17.50
2022-09-05T23:49:57.960Z,18.52
2022-09-05T23:52:26.005Z,16.60
2022-09-05T23:54:55.677Z,15.15
2022-09-05T23:57:24.640Z,14.52
2022-09-05T23:59:52.918Z,13.80
